In Rescue
 
Open Full Screen Window  High Contrast Mode
Wind Gusting 00 knots
03
July 25, 2021 9:12 AM EDT
Weather Information
Wind Direction
  290 °
Wind Speed
  03 kt (3 mph)
Wind Gust
  00 kt (0 mph)
Altimeter
29.91 in
Visibility
7 SM
Temperature
23° C
73° F
Dewpoint
22° C
72° F
Humidity
94%
1hr Rain Fall
00.00 in.
24hr Rain Fall
00.85 in.
Sky Condition
Scattered @ 11,000 ft
Scattered @ 500 ft
VFR

METAR KONZ 251312Z AUTO 29003KT 7SM SCT005 SCT110 23/22 A2991 RMK AO2 T02320218

FAA Disclaimer: The data displayed is for advisory purposes only and is not to be used for flight planning or operations.